America — WDE6076 — position and weather

sailwx.info

Track history (hours):
 
Tides and Currents Weather Stations Pressure Air Temp Water Temp Dewpoint Dewpoint Depression Visibility Wind Speed Wind Dir Waves Ship Positions

America

Owner: ET Yacht, LLC, San Diego, CA. More information available from US FCC via Universal Licensing System and Coast Guard Vessel Documentation Center.

Last reported at 2017-Oct-18 13:23 UTC. Time now 2017-Oct-20 10:49 UTC.
Position N 32°43' W 117°10'.

Length 42 m; draft 3.5 m.

Type: Sailing vessel. MMSI: 367375550.

Date/timePositionNaut miles runAvg speedWind from/ knotsBaromVisibWave heightAir tempDewpointWater temp
2017-Oct-18 13:23N 32°43' W 117°10'0 0.0
2017-Oct-18 12:57N 32°43' W 117°10'0 0.0
2017-Oct-18 05:00N 32°43' W 117°10'0 0.0
2017-Oct-18 04:25N 32°43' W 117°10'  
2017-Oct-15 19:35N 32°34' W 117°17'3 8.5
2017-Oct-15 19:15N 32°36' W 117°16'4 9.0
2017-Oct-15 18:50N 32°40' W 117°13'4 0.6
2017-Oct-15 11:12N 32°43' W 117°10'0 0.0
2017-Oct-15 10:58N 32°43' W 117°10'0 0.0
2017-Oct-15 09:09N 32°43' W 117°10'0 0.0
2017-Oct-15 08:59N 32°43' W 117°10'0 0.0
2017-Oct-15 05:35N 32°43' W 117°10'0 0.0
2017-Oct-15 05:21N 32°43' W 117°10'0 0.0
2017-Oct-14 22:47N 32°43' W 117°10'0 0.4
2017-Oct-14 22:30N 32°43' W 117°11'0 0.3
2017-Oct-14 22:01N 32°43' W 117°11'0 0.4
2017-Oct-14 21:30N 32°43' W 117°11'1 0.0
2017-Oct-14 03:07N 32°43' W 117°11'0 1.0
2017-Oct-14 03:00N 32°43' W 117°11'1 2.3
2017-Oct-14 02:30N 32°43' W 117°12'0 1.0
2017-Oct-14 02:00N 32°43' W 117°12'1 2.7
2017-Oct-14 01:30N 32°43' W 117°11'0 0.0
2017-Oct-13 08:44N 32°43' W 117°11'2 8.5
2017-Oct-13 08:30N 32°43' W 117°13'4 7.6
2017-Oct-13 07:58N 32°39' W 117°15'4 7.9
2017-Oct-13 07:30N 32°42' W 117°18'4 8.3
2017-Oct-13 07:00N 32°45' W 117°20'4 8.1
2017-Oct-13 06:30N 32°49' W 117°22'4 8.2
2017-Oct-13 06:00N 32°52' W 117°25'4 8.1
2017-Oct-13 05:30N 32°56' W 117°27'4 8.3
2017-Oct-13 05:00N 32°60' W 117°29'4 8.5
2017-Oct-13 04:30N 33°03' W 117°32'4 8.7
2017-Oct-13 04:00N 33°07' W 117°34'4 8.7
2017-Oct-13 03:30N 33°11' W 117°37'4 8.5
2017-Oct-13 03:00N 33°15' W 117°39'4 8.8
2017-Oct-13 02:30N 33°19' W 117°42'4 8.7
2017-Oct-13 02:00N 33°22' W 117°44'4 8.7
2017-Oct-13 01:30N 33°26' W 117°47'4 8.6
2017-Oct-13 01:00N 33°30' W 117°49'5 8.6
2017-Oct-13 00:27N 33°34' W 117°52'3 6.4
2017-Oct-13 00:00N 33°36' W 117°54'1 2.2
2017-Oct-12 23:30N 33°37' W 117°55'2 3.9
2017-Oct-12 23:00N 33°36' W 117°53'0 0.8
2017-Oct-12 22:30N 33°36' W 117°53'0 0.7
2017-Oct-12 22:00N 33°36' W 117°53'2 1.8
2017-Oct-12 20:53N 33°37' W 117°55'0 0.0
2017-Oct-12 20:24N 33°37' W 117°55'0 0.0
2017-Oct-12 20:00N 33°37' W 117°55'0 0.0
2017-Oct-12 19:29N 33°37' W 117°55'0 0.0
2017-Oct-12 18:56N 33°37' W 117°55'0 0.0
2017-Oct-12 18:09N 33°37' W 117°55'0 0.0
2017-Oct-12 17:39N 33°37' W 117°55'0 0.0
2017-Oct-12 17:20N 33°37' W 117°55'0 0.0
2017-Oct-12 16:55N 33°37' W 117°55'0 0.0
2017-Oct-12 16:23N 33°37' W 117°55'0 0.0
2017-Oct-12 15:49N 33°37' W 117°55'0 0.0
2017-Oct-12 15:28N 33°37' W 117°55'0 0.0
2017-Oct-12 14:25N 33°37' W 117°55'0 0.0
2017-Oct-12 13:29N 33°37' W 117°55'0 0.0
2017-Oct-12 12:55N 33°37' W 117°55'0 0.0
2017-Oct-12 12:29N 33°37' W 117°55'0 0.0
2017-Oct-12 11:53N 33°37' W 117°55'0 0.0
2017-Oct-12 11:21N 33°37' W 117°55'0 0.0
2017-Oct-12 10:56N 33°37' W 117°55'0 0.0
2017-Oct-12 10:17N 33°37' W 117°55'0 0.0
2017-Oct-12 09:59N 33°37' W 117°55'0 0.0
2017-Oct-12 09:29N 33°37' W 117°55'0 0.0
2017-Oct-12 08:56N 33°37' W 117°55'0 0.0
2017-Oct-12 08:07N 33°37' W 117°55'0 0.0
2017-Oct-12 07:58N 33°37' W 117°55'0 0.0
2017-Oct-12 07:08N 33°37' W 117°55'0 0.0
2017-Oct-12 06:55N 33°37' W 117°55'0 0.0
2017-Oct-12 06:19N 33°37' W 117°55'0 0.0
2017-Oct-12 05:59N 33°37' W 117°55'0 0.0
2017-Oct-12 04:49N 33°37' W 117°55'0 0.0
2017-Oct-12 04:29N 33°37' W 117°55'0 0.0
2017-Oct-12 04:00N 33°37' W 117°55'2 3.6
2017-Oct-12 03:30N 33°36' W 117°53'3 6.4
2017-Oct-12 03:00N 33°33' W 117°51'4 7.4
2017-Oct-12 02:30N 33°30' W 117°49'4 7.6
2017-Oct-12 02:00N 33°27' W 117°47'4 7.5
2017-Oct-12 01:30N 33°23' W 117°45'4 7.4
2017-Oct-12 01:00N 33°20' W 117°43'4 7.4
2017-Oct-12 00:30N 33°17' W 117°41'4 7.3
2017-Oct-12 00:00N 33°14' W 117°39'4 7.3
2017-Oct-11 23:30N 33°11' W 117°36'4 7.3
2017-Oct-11 23:00N 33°07' W 117°34'4 7.6
2017-Oct-11 22:30N 33°04' W 117°32'4 7.6
2017-Oct-11 22:00N 33°01' W 117°30'4 7.8
2017-Oct-11 21:30N 32°57' W 117°28'3 6.6
2017-Oct-11 21:00N 32°54' W 117°26'4 7.6
2017-Oct-11 20:30N 32°51' W 117°24'4 8.1
2017-Oct-11 20:00N 32°47' W 117°21'4 8.2
2017-Oct-11 19:30N 32°44' W 117°19'4 8.1
2017-Oct-11 19:00N 32°40' W 117°17'3 5.0
2017-Oct-11 18:30N 32°41' W 117°14'3 5.3
2017-Oct-11 17:58N 32°44' W 117°13'0 0.0
2017-Oct-11 17:28N 32°44' W 117°13'2 0.1
2017-Oct-10 19:51N 32°43' W 117°10'0 0.0
2017-Oct-09 19:53N 32°43' W 117°10'0 0.0
2017-Oct-09 19:05N 32°43' W 117°10'0 0.0
2017-Oct-09 18:47N 32°43' W 117°10'0 0.0
2017-Oct-08 23:05N 32°43' W 117°10'0 0.0
2017-Oct-08 22:46N 32°43' W 117°10'0 0.8
2017-Oct-08 22:21N 32°43' W 117°11'2 6.3
2017-Oct-08 22:00N 32°43' W 117°13'2 5.0
2017-Oct-08 21:30N 32°40' W 117°14'2 3.9
2017-Oct-08 21:00N 32°39' W 117°15'4 7.2
2017-Oct-08 20:30N 32°38' W 117°19'2 4.5
2017-Oct-08 20:00N 32°38' W 117°22'3 6.4
2017-Oct-08 19:31N 32°39' W 117°18'3 6.4
2017-Oct-08 19:00N 32°39' W 117°15'3 6.9
2017-Oct-08 18:30N 32°42' W 117°14'  
Track history (hours):
 
Tides and Currents Weather Stations Pressure Air Temp Water Temp Dewpoint Dewpoint Depression Visibility Wind Speed Wind Dir Waves Ship Positions

America

Owner: ET Yacht, LLC, San Diego, CA. More information available from US FCC via Universal Licensing System and Coast Guard Vessel Documentation Center.

Last reported at 2017-Oct-18 13:23 UTC. Time now 2017-Oct-20 10:49 UTC.
Position N 32°43' W 117°10'.

Length 42 m; draft 3.5 m.

Type: Sailing vessel. MMSI: 367375550.

Date/timePositionNaut miles runAvg speedWind from/ knotsBaromVisibWave heightAir tempDewpointWater temp
2017-Oct-18 13:23N 32°43' W 117°10'0 0.0
2017-Oct-18 12:57N 32°43' W 117°10'0 0.0
2017-Oct-18 05:00N 32°43' W 117°10'0 0.0
2017-Oct-18 04:25N 32°43' W 117°10'  
2017-Oct-15 19:35N 32°34' W 117°17'3 8.5
2017-Oct-15 19:15N 32°36' W 117°16'4 9.0
2017-Oct-15 18:50N 32°40' W 117°13'4 0.6
2017-Oct-15 11:12N 32°43' W 117°10'0 0.0
2017-Oct-15 10:58N 32°43' W 117°10'0 0.0
2017-Oct-15 09:09N 32°43' W 117°10'0 0.0
2017-Oct-15 08:59N 32°43' W 117°10'0 0.0
2017-Oct-15 05:35N 32°43' W 117°10'0 0.0
2017-Oct-15 05:21N 32°43' W 117°10'0 0.0
2017-Oct-14 22:47N 32°43' W 117°10'0 0.4
2017-Oct-14 22:30N 32°43' W 117°11'0 0.3
2017-Oct-14 22:01N 32°43' W 117°11'0 0.4
2017-Oct-14 21:30N 32°43' W 117°11'1 0.0
2017-Oct-14 03:07N 32°43' W 117°11'0 1.0
2017-Oct-14 03:00N 32°43' W 117°11'1 2.3
2017-Oct-14 02:30N 32°43' W 117°12'0 1.0
2017-Oct-14 02:00N 32°43' W 117°12'1 2.7
2017-Oct-14 01:30N 32°43' W 117°11'0 0.0
2017-Oct-13 08:44N 32°43' W 117°11'2 8.5
2017-Oct-13 08:30N 32°43' W 117°13'4 7.6
2017-Oct-13 07:58N 32°39' W 117°15'4 7.9
2017-Oct-13 07:30N 32°42' W 117°18'4 8.3
2017-Oct-13 07:00N 32°45' W 117°20'4 8.1
2017-Oct-13 06:30N 32°49' W 117°22'4 8.2
2017-Oct-13 06:00N 32°52' W 117°25'4 8.1
2017-Oct-13 05:30N 32°56' W 117°27'4 8.3
2017-Oct-13 05:00N 32°60' W 117°29'4 8.5
2017-Oct-13 04:30N 33°03' W 117°32'4 8.7
2017-Oct-13 04:00N 33°07' W 117°34'4 8.7
2017-Oct-13 03:30N 33°11' W 117°37'4 8.5
2017-Oct-13 03:00N 33°15' W 117°39'4 8.8
2017-Oct-13 02:30N 33°19' W 117°42'4 8.7
2017-Oct-13 02:00N 33°22' W 117°44'4 8.7
2017-Oct-13 01:30N 33°26' W 117°47'4 8.6
2017-Oct-13 01:00N 33°30' W 117°49'5 8.6
2017-Oct-13 00:27N 33°34' W 117°52'3 6.4
2017-Oct-13 00:00N 33°36' W 117°54'1 2.2
2017-Oct-12 23:30N 33°37' W 117°55'2 3.9
2017-Oct-12 23:00N 33°36' W 117°53'0 0.8
2017-Oct-12 22:30N 33°36' W 117°53'0 0.7
2017-Oct-12 22:00N 33°36' W 117°53'2 1.8
2017-Oct-12 20:53N 33°37' W 117°55'0 0.0
2017-Oct-12 20:24N 33°37' W 117°55'0 0.0
2017-Oct-12 20:00N 33°37' W 117°55'0 0.0
2017-Oct-12 19:29N 33°37' W 117°55'0 0.0
2017-Oct-12 18:56N 33°37' W 117°55'0 0.0
2017-Oct-12 18:09N 33°37' W 117°55'0 0.0
2017-Oct-12 17:39N 33°37' W 117°55'0 0.0
2017-Oct-12 17:20N 33°37' W 117°55'0 0.0
2017-Oct-12 16:55N 33°37' W 117°55'0 0.0
2017-Oct-12 16:23N 33°37' W 117°55'0 0.0
2017-Oct-12 15:49N 33°37' W 117°55'0 0.0
2017-Oct-12 15:28N 33°37' W 117°55'0 0.0
2017-Oct-12 14:25N 33°37' W 117°55'0 0.0
2017-Oct-12 13:29N 33°37' W 117°55'0 0.0
2017-Oct-12 12:55N 33°37' W 117°55'0 0.0
2017-Oct-12 12:29N 33°37' W 117°55'0 0.0
2017-Oct-12 11:53N 33°37' W 117°55'0 0.0
2017-Oct-12 11:21N 33°37' W 117°55'0 0.0
2017-Oct-12 10:56N 33°37' W 117°55'0 0.0
2017-Oct-12 10:17N 33°37' W 117°55'0 0.0
2017-Oct-12 09:59N 33°37' W 117°55'0 0.0
2017-Oct-12 09:29N 33°37' W 117°55'0 0.0
2017-Oct-12 08:56N 33°37' W 117°55'0 0.0
2017-Oct-12 08:07N 33°37' W 117°55'0 0.0
2017-Oct-12 07:58N 33°37' W 117°55'0 0.0
2017-Oct-12 07:08N 33°37' W 117°55'0 0.0
2017-Oct-12 06:55N 33°37' W 117°55'0 0.0
2017-Oct-12 06:19N 33°37' W 117°55'0 0.0
2017-Oct-12 05:59N 33°37' W 117°55'0 0.0
2017-Oct-12 04:49N 33°37' W 117°55'0 0.0
2017-Oct-12 04:29N 33°37' W 117°55'0 0.0
2017-Oct-12 04:00N 33°37' W 117°55'2 3.6
2017-Oct-12 03:30N 33°36' W 117°53'3 6.4
2017-Oct-12 03:00N 33°33' W 117°51'4 7.4
2017-Oct-12 02:30N 33°30' W 117°49'4 7.6
2017-Oct-12 02:00N 33°27' W 117°47'4 7.5
2017-Oct-12 01:30N 33°23' W 117°45'4 7.4
2017-Oct-12 01:00N 33°20' W 117°43'4 7.4
2017-Oct-12 00:30N 33°17' W 117°41'4 7.3
2017-Oct-12 00:00N 33°14' W 117°39'4 7.3
2017-Oct-11 23:30N 33°11' W 117°36'4 7.3
2017-Oct-11 23:00N 33°07' W 117°34'4 7.6
2017-Oct-11 22:30N 33°04' W 117°32'4 7.6
2017-Oct-11 22:00N 33°01' W 117°30'4 7.8
2017-Oct-11 21:30N 32°57' W 117°28'3 6.6
2017-Oct-11 21:00N 32°54' W 117°26'4 7.6
2017-Oct-11 20:30N 32°51' W 117°24'4 8.1
2017-Oct-11 20:00N 32°47' W 117°21'4 8.2
2017-Oct-11 19:30N 32°44' W 117°19'4 8.1
2017-Oct-11 19:00N 32°40' W 117°17'3 5.0
2017-Oct-11 18:30N 32°41' W 117°14'3 5.3
2017-Oct-11 17:58N 32°44' W 117°13'0 0.0
2017-Oct-11 17:28N 32°44' W 117°13'2 0.1
2017-Oct-10 19:51N 32°43' W 117°10'0 0.0
2017-Oct-09 19:53N 32°43' W 117°10'0 0.0
2017-Oct-09 19:05N 32°43' W 117°10'0 0.0
2017-Oct-09 18:47N 32°43' W 117°10'0 0.0
2017-Oct-08 23:05N 32°43' W 117°10'0 0.0
2017-Oct-08 22:46N 32°43' W 117°10'0 0.8
2017-Oct-08 22:21N 32°43' W 117°11'2 6.3
2017-Oct-08 22:00N 32°43' W 117°13'2 5.0
2017-Oct-08 21:30N 32°40' W 117°14'2 3.9
2017-Oct-08 21:00N 32°39' W 117°15'4 7.2
2017-Oct-08 20:30N 32°38' W 117°19'2 4.5
2017-Oct-08 20:00N 32°38' W 117°22'3 6.4
2017-Oct-08 19:31N 32°39' W 117°18'3 6.4
2017-Oct-08 19:00N 32°39' W 117°15'3 6.9
2017-Oct-08 18:30N 32°42' W 117°14'  

Dump ship's entire track history